Hernderson, Zimbabwe

11:35 AM CAT on February 14, 2016 (GMT +0200)
Harare International | | Change Station
CLOSE
Current Station
Airport
Location: Harare Kutsaga,
Elevation: 4856 ft
Nearby Weather Stations

Elev 4856 ft 17.92 °S, 31.13 °E | Updated 35 minutes ago

Scattered Clouds
Scattered Clouds
77 °F
Feels Like 77 °F
N
6
Wind Variable Wind from East

Today
High -- | Low -- °F
--% Chance of Precip.
Yesterday
High -- | Low -- °F
Precip. -- in
Pressure 30.15 in
Visibility 6.2 miles
Clouds Mostly Cloudy 2000 ft
Scattered Clouds 30000 ft
Dew Point 64 °F
Humidity 65%
Rainfall 0.00 in
Snow Depth Not available.
5:49 AM 6:30 PM
Waxing Crescent, 40% visible
METAR FVHA 140900Z 09005KT 030V140 9999 BKN020 SCT300 25/18 Q1021 NOSIG
Pressure 30.15 in
Visibility 6.2 miles
Clouds Mostly Cloudy 2000 ft
Scattered Clouds 30000 ft
Dew Point 64 °F
Humidity 65%
Rainfall 0.00 in
Snow Depth Not available.
5:49 AM 6:30 PM
Waxing Crescent, 40% visible
METAR FVHA 140900Z 09005KT 030V140 9999 BKN020 SCT300 25/18 Q1021 NOSIG

10-Day Weather Forecast

No radar image for this location.
×

Almanac

Astronomy

Feb. 14, 2016 Rise Set
Actual Time
Civil Twilight
Nautical Twilight
Astronomical Twilight
Moon
Length of Visible Light
Length of Day
Tomorrow will be .
, % of the Moon is Illuminated

Today's Extremes

Country Highs Country Lows

Community

WunderPhotos

Upload Photos

1,892,761 photos uploaded!

WunderBlog® & News

Nearby

Air Quality

  Air Quality AQ Index Pollutant
Not available.

Snow Depth

Station Depth Elevation

Earthquake Activity

City Distance Mag. Time & Date
Minimum magnitude displayed is 2.5.

Coastal Water Temperatures

Place Temperature

Stations

Nearby Weather Stations

Station Location Temp. Windchill Dew Point Humidity Wind Precip. Elev Updated Type